createdAt,value
2022-07-25T00:01:25.389Z,47.88
2022-07-25T00:03:56.757Z,47.64
2022-07-25T00:06:23.957Z,47.15
2022-07-25T00:08:50.993Z,46.88
2022-07-25T00:11:17.598Z,46.88
2022-07-25T00:13:44.875Z,46.90
2022-07-25T00:16:11.550Z,46.49
2022-07-25T00:18:38.136Z,46.58
2022-07-25T00:21:05.212Z,46.78
2022-07-25T00:23:31.948Z,46.42
2022-07-25T00:25:59.336Z,46.18
2022-07-25T00:28:25.860Z,46.13
2022-07-25T00:30:52.501Z,45.89
2022-07-25T00:33:19.070Z,46.51
2022-07-25T00:35:45.725Z,46.84
2022-07-25T00:38:12.546Z,46.70
2022-07-25T00:40:39.295Z,46.20
2022-07-25T00:43:06.636Z,46.28
2022-07-25T00:45:33.494Z,45.95
2022-07-25T00:48:00.431Z,46.60
2022-07-25T00:50:26.997Z,46.16
2022-07-25T00:52:54.276Z,45.68
2022-07-25T00:55:21.443Z,45.46
2022-07-25T00:57:48.003Z,45.59
2022-07-25T01:00:16.426Z,45.64
2022-07-25T01:02:43.493Z,45.62
2022-07-25T01:05:12.055Z,45.06
2022-07-25T01:07:39.290Z,45.35
2022-07-25T01:10:07.205Z,45.40
2022-07-25T01:12:51.417Z,44.76
2022-07-25T01:15:19.543Z,45.02
2022-07-25T01:17:46.822Z,45.24
2022-07-25T01:20:24.387Z,45.22
2022-07-25T01:22:51.947Z,45.64
2022-07-25T01:25:19.541Z,45.24
2022-07-25T01:27:52.752Z,45.72
2022-07-25T01:30:22.353Z,45.66
2022-07-25T01:32:48.936Z,45.76
2022-07-25T01:35:15.533Z,45.92
2022-07-25T01:37:42.193Z,45.35
2022-07-25T01:40:14.497Z,45.47
2022-07-25T01:42:41.903Z,46.06
2022-07-25T01:45:09.089Z,46.16
2022-07-25T01:47:35.637Z,46.17
2022-07-25T01:50:02.208Z,46.10
2022-07-25T01:52:29.240Z,45.88
2022-07-25T01:54:56.007Z,46.50
2022-07-25T01:57:31.131Z,46.68
2022-07-25T01:59:59.483Z,46.32
2022-07-25T02:02:26.807Z,46.32
2022-07-25T02:04:53.477Z,46.62
2022-07-25T02:07:20.521Z,46.57
2022-07-25T02:09:47.074Z,46.72
2022-07-25T02:12:13.875Z,46.26
2022-07-25T02:14:41.137Z,45.80
2022-07-25T02:17:09.585Z,46.35
2022-07-25T02:19:36.682Z,46.55
2022-07-25T02:22:03.561Z,46.51
2022-07-25T02:24:30.129Z,45.85
2022-07-25T02:26:56.883Z,46.39
2022-07-25T02:29:23.898Z,46.26
2022-07-25T02:31:51.908Z,46.28
2022-07-25T02:34:18.854Z,46.25
2022-07-25T02:36:45.840Z,46.02
2022-07-25T02:39:12.631Z,46.18
2022-07-25T02:41:39.946Z,46.70
2022-07-25T02:44:07.090Z,46.38
2022-07-25T02:46:34.031Z,46.29
2022-07-25T02:49:00.734Z,46.97
2022-07-25T02:51:27.349Z,46.81
2022-07-25T02:53:57.650Z,47.04
2022-07-25T02:56:24.598Z,46.67
2022-07-25T02:58:51.139Z,46.76
2022-07-25T03:01:17.743Z,47.08
2022-07-25T03:03:45.155Z,47.24
2022-07-25T03:06:11.718Z,47.17
2022-07-25T03:08:38.499Z,47.17
2022-07-25T03:11:05.998Z,47.40
2022-07-25T03:13:33.229Z,47.35
2022-07-25T03:16:00.188Z,47.90
2022-07-25T03:18:26.722Z,48.33
2022-07-25T03:20:53.597Z,47.97
2022-07-25T03:23:20.152Z,47.78
2022-07-25T03:25:46.769Z,47.50
2022-07-25T03:28:13.345Z,48.23
2022-07-25T03:30:40.495Z,48.38
2022-07-25T03:33:07.077Z,48.00
2022-07-25T03:35:33.631Z,48.24
2022-07-25T03:38:01.983Z,47.73
2022-07-25T03:40:28.947Z,47.80
2022-07-25T03:42:55.512Z,47.55
2022-07-25T03:45:22.145Z,48.15
2022-07-25T03:47:48.866Z,47.68
2022-07-25T03:50:16.497Z,47.69
2022-07-25T03:52:43.103Z,47.72
2022-07-25T03:55:11.155Z,47.97
2022-07-25T03:57:38.537Z,48.05
2022-07-25T04:00:07.249Z,48.35
2022-07-25T04:02:33.959Z,47.93
2022-07-25T04:05:01.844Z,47.87
2022-07-25T04:07:28.721Z,47.74
2022-07-25T04:09:55.282Z,47.55
2022-07-25T04:12:21.830Z,48.15
2022-07-25T04:14:48.977Z,47.79
2022-07-25T04:17:15.589Z,47.55
2022-07-25T04:19:42.251Z,47.06
2022-07-25T04:22:09.131Z,47.60
2022-07-25T04:24:35.837Z,47.13
2022-07-25T04:27:02.714Z,46.49
2022-07-25T04:29:29.410Z,47.40
2022-07-25T04:31:56.134Z,47.15
2022-07-25T04:34:22.705Z,46.86
2022-07-25T04:36:49.330Z,47.31
2022-07-25T04:39:15.920Z,47.42
2022-07-25T04:41:42.465Z,46.80
2022-07-25T04:44:09.541Z,46.68
2022-07-25T04:46:36.745Z,46.76
2022-07-25T04:49:03.512Z,46.72
2022-07-25T04:51:30.110Z,46.64
2022-07-25T04:53:56.649Z,46.61
2022-07-25T04:56:23.222Z,46.25
2022-07-25T04:58:49.848Z,46.40
2022-07-25T05:01:16.704Z,45.87
2022-07-25T05:03:49.822Z,46.27
2022-07-25T05:06:17.729Z,45.66
2022-07-25T05:08:44.917Z,45.98
2022-07-25T05:11:11.521Z,46.04
2022-07-25T05:13:38.075Z,45.38
2022-07-25T05:16:05.251Z,45.55
2022-07-25T05:18:34.113Z,45.37
2022-07-25T05:21:00.995Z,45.14
2022-07-25T05:23:27.646Z,44.92
2022-07-25T05:25:54.223Z,44.21
2022-07-25T05:28:20.784Z,44.18
2022-07-25T05:30:47.332Z,43.37
2022-07-25T05:33:15.243Z,41.07
2022-07-25T05:35:41.908Z,38.18
2022-07-25T05:38:08.970Z,36.98
2022-07-25T05:40:35.545Z,36.21
2022-07-25T05:43:03.725Z,36.82
2022-07-25T05:45:30.957Z,36.91
2022-07-25T05:47:57.517Z,36.29
2022-07-25T05:50:24.380Z,35.74
2022-07-25T05:52:51.177Z,33.99
2022-07-25T05:55:17.932Z,32.92
2022-07-25T05:57:44.708Z,32.89
2022-07-25T06:00:12.286Z,33.68
2022-07-25T06:02:39.101Z,34.39
2022-07-25T06:05:05.951Z,35.80
2022-07-25T06:07:32.947Z,34.99
2022-07-25T06:09:59.541Z,34.99
2022-07-25T06:12:26.135Z,35.24
2022-07-25T06:14:52.973Z,35.42
2022-07-25T06:17:20.575Z,34.67
2022-07-25T06:19:47.234Z,35.54
2022-07-25T06:22:14.433Z,35.44
2022-07-25T06:24:41.655Z,35.52
2022-07-25T06:27:08.639Z,35.01
2022-07-25T06:29:35.194Z,35.10
2022-07-25T06:32:01.894Z,36.03
2022-07-25T06:34:29.085Z,35.33
2022-07-25T06:36:57.647Z,34.71
2022-07-25T06:39:25.773Z,34.96
2022-07-25T06:41:52.714Z,34.62
2022-07-25T06:44:19.318Z,34.74
2022-07-25T06:46:46.033Z,34.41
2022-07-25T06:49:13.018Z,33.88
2022-07-25T06:51:39.766Z,34.60
2022-07-25T06:54:06.589Z,34.68
2022-07-25T06:56:34.109Z,34.90
2022-07-25T06:59:00.798Z,35.15
2022-07-25T07:01:28.021Z,35.41
2022-07-25T07:03:54.857Z,35.19
2022-07-25T07:06:21.501Z,35.16
2022-07-25T07:08:48.126Z,35.10
2022-07-25T07:11:15.320Z,35.09
2022-07-25T07:13:41.976Z,32.97
2022-07-25T07:16:08.804Z,32.23
2022-07-25T07:18:35.496Z,31.80
2022-07-25T07:21:02.250Z,30.80
2022-07-25T07:23:29.096Z,30.37
2022-07-25T07:25:56.318Z,30.32
2022-07-25T07:28:23.571Z,30.36
2022-07-25T07:33:37.647Z,30.24
2022-07-25T07:36:04.405Z,30.12
2022-07-25T07:38:30.963Z,29.84
2022-07-25T07:40:57.514Z,30.38
2022-07-25T07:43:29.674Z,29.35
2022-07-25T07:46:00.570Z,28.83
2022-07-25T07:48:28.314Z,28.56
2022-07-25T07:50:54.974Z,28.55
2022-07-25T07:53:21.883Z,29.40
2022-07-25T07:55:54.975Z,29.29
2022-07-25T07:58:21.767Z,29.82
2022-07-25T08:00:49.588Z,30.44
2022-07-25T08:03:21.015Z,29.60
2022-07-25T08:05:48.807Z,29.66
2022-07-25T08:08:16.281Z,30.46
2022-07-25T08:10:45.720Z,30.56
2022-07-25T08:13:17.502Z,29.94
2022-07-25T08:15:46.517Z,29.69
2022-07-25T08:18:17.654Z,29.31
2022-07-25T08:20:48.723Z,29.77
2022-07-25T08:23:15.495Z,29.37
2022-07-25T08:25:42.799Z,29.49
2022-07-25T08:28:09.705Z,29.35
2022-07-25T08:30:38.667Z,28.66
2022-07-25T08:33:08.027Z,29.16
2022-07-25T08:35:35.815Z,28.81
2022-07-25T08:38:04.743Z,29.48
2022-07-25T08:40:32.543Z,29.64
2022-07-25T08:42:59.619Z,30.52
2022-07-25T08:45:28.474Z,30.42
2022-07-25T08:47:55.925Z,28.30
2022-07-25T08:50:28.508Z,29.33
2022-07-25T08:53:10.413Z,29.44
2022-07-25T08:55:45.062Z,29.11
2022-07-25T08:58:14.182Z,29.03
2022-07-25T09:00:40.925Z,30.12
2022-07-25T09:03:08.171Z,30.24
2022-07-25T09:05:37.171Z,29.64
2022-07-25T09:08:12.824Z,30.40
2022-07-25T09:10:45.248Z,29.83
2022-07-25T09:13:14.486Z,29.52
2022-07-25T09:15:46.398Z,30.24
2022-07-25T09:18:15.976Z,29.46
2022-07-25T09:20:53.272Z,29.93
2022-07-25T09:23:33.830Z,29.08
2022-07-25T09:26:09.642Z,30.34
2022-07-25T09:28:46.379Z,29.68
2022-07-25T09:31:13.881Z,30.65
2022-07-25T09:33:49.378Z,30.62
2022-07-25T09:36:16.298Z,29.99
2022-07-25T09:38:57.066Z,29.49
2022-07-25T09:41:34.281Z,28.19
2022-07-25T09:44:00.878Z,29.21
2022-07-25T09:46:31.987Z,29.75
2022-07-25T09:49:00.323Z,28.70
2022-07-25T09:51:28.258Z,29.34
2022-07-25T09:53:54.843Z,28.84
2022-07-25T09:56:21.441Z,29.12
2022-07-25T09:58:48.043Z,29.12
2022-07-25T10:01:22.527Z,29.44
2022-07-25T10:04:00.965Z,29.26
2022-07-25T10:06:39.419Z,29.85
2022-07-25T10:09:13.315Z,29.16
2022-07-25T10:11:40.837Z,29.42
2022-07-25T10:14:14.217Z,29.54
2022-07-25T10:16:47.849Z,29.53
2022-07-25T10:19:14.883Z,29.98
2022-07-25T10:21:42.251Z,29.89
2022-07-25T10:24:10.863Z,30.54
2022-07-25T10:26:42.189Z,30.18
2022-07-25T10:29:11.082Z,30.56
2022-07-25T10:31:49.302Z,30.31
2022-07-25T10:34:29.519Z,30.25
2022-07-25T10:36:57.803Z,30.21
2022-07-25T10:39:24.354Z,29.98
2022-07-25T10:42:03.033Z,29.81
2022-07-25T10:44:49.971Z,29.92
2022-07-25T10:47:17.533Z,30.08
2022-07-25T10:50:13.861Z,30.21
2022-07-25T10:52:41.822Z,30.52
2022-07-25T10:55:08.787Z,30.99
2022-07-25T10:57:35.756Z,30.54
2022-07-25T11:00:07.296Z,30.35
2022-07-25T11:02:33.999Z,31.14
2022-07-25T11:05:02.994Z,30.69
2022-07-25T11:07:35.869Z,31.48
2022-07-25T11:10:05.117Z,31.53
2022-07-25T11:12:32.266Z,30.29
2022-07-25T11:15:07.434Z,30.08
2022-07-25T11:17:34.461Z,31.79
2022-07-25T11:20:04.441Z,30.83
2022-07-25T11:22:32.436Z,30.92
2022-07-25T11:25:00.083Z,31.09
2022-07-25T11:27:32.139Z,31.07
2022-07-25T11:30:19.481Z,31.73
2022-07-25T11:32:54.055Z,32.36
2022-07-25T11:35:24.742Z,31.27
2022-07-25T11:37:52.370Z,31.07
2022-07-25T11:40:20.535Z,31.36
2022-07-25T11:42:53.653Z,31.54
2022-07-25T11:45:25.781Z,32.28
2022-07-25T11:48:07.635Z,31.34
2022-07-25T11:50:36.976Z,31.61
2022-07-25T11:53:05.516Z,32.37
2022-07-25T11:55:36.384Z,30.72
2022-07-25T11:58:04.586Z,30.35
2022-07-25T12:00:35.266Z,30.21
2022-07-25T12:03:12.113Z,30.46
2022-07-25T12:05:42.861Z,29.95
2022-07-25T12:08:11.875Z,29.91
2022-07-25T12:10:39.641Z,30.08
2022-07-25T12:13:08.727Z,29.28
2022-07-25T12:15:40.891Z,30.35
2022-07-25T12:18:12.524Z,30.56
2022-07-25T12:20:42.906Z,30.61
2022-07-25T12:23:11.759Z,30.35
2022-07-25T12:25:43.635Z,30.84
2022-07-25T12:28:11.168Z,30.98
2022-07-25T12:30:39.423Z,30.68
2022-07-25T12:33:06.520Z,31.42
2022-07-25T12:35:34.799Z,32.22
2022-07-25T12:38:01.343Z,32.40
2022-07-25T12:40:27.990Z,32.69
2022-07-25T12:42:54.655Z,32.49
2022-07-25T12:45:21.672Z,32.87
2022-07-25T12:47:48.750Z,32.37
2022-07-25T12:50:17.890Z,33.40
2022-07-25T12:52:45.566Z,32.63
2022-07-25T12:55:18.512Z,33.59
2022-07-25T12:57:46.298Z,33.57
2022-07-25T13:00:15.375Z,34.29
2022-07-25T13:02:42.541Z,34.68
2022-07-25T13:05:09.425Z,34.79
2022-07-25T13:07:36.150Z,34.36
2022-07-25T13:10:03.736Z,34.49
2022-07-25T13:12:30.711Z,34.69
2022-07-25T13:14:57.607Z,34.55
2022-07-25T13:17:27.524Z,34.19
2022-07-25T13:19:55.451Z,34.65
2022-07-25T13:22:22.065Z,34.56
2022-07-25T13:24:48.594Z,34.52
2022-07-25T13:27:18.181Z,34.63
2022-07-25T13:29:44.886Z,33.63
2022-07-25T13:32:12.035Z,34.05
2022-07-25T13:34:39.216Z,32.86
2022-07-25T13:37:05.988Z,32.93
2022-07-25T13:39:33.598Z,33.28
2022-07-25T13:42:00.173Z,34.05
2022-07-25T13:44:26.721Z,33.68
2022-07-25T13:46:53.335Z,33.60
2022-07-25T13:49:20.392Z,33.92
2022-07-25T13:51:47.532Z,33.32
2022-07-25T13:54:14.586Z,33.42
2022-07-25T13:56:42.335Z,33.13
2022-07-25T13:59:09.624Z,33.51
2022-07-25T14:01:36.790Z,33.23
2022-07-25T14:04:03.399Z,33.24
2022-07-25T14:06:30.003Z,33.68
2022-07-25T14:08:56.772Z,33.85
2022-07-25T14:11:27.337Z,33.70
2022-07-25T14:13:57.390Z,33.70
2022-07-25T14:16:24.535Z,33.86
2022-07-25T14:18:51.515Z,33.69
2022-07-25T14:21:18.324Z,34.29
2022-07-25T14:23:44.919Z,33.71
2022-07-25T14:26:11.491Z,33.65
2022-07-25T14:28:38.078Z,34.27
2022-07-25T14:31:04.783Z,33.55
2022-07-25T14:33:31.440Z,33.25
2022-07-25T14:35:59.492Z,33.16
2022-07-25T14:38:26.133Z,33.73
2022-07-25T14:40:52.718Z,33.97
2022-07-25T14:43:19.255Z,35.00
2022-07-25T14:45:45.919Z,37.66
2022-07-25T14:48:12.519Z,38.37
2022-07-25T14:50:39.499Z,39.32
2022-07-25T14:53:06.121Z,40.30
2022-07-25T14:55:34.708Z,41.09
2022-07-25T14:58:03.625Z,42.10
2022-07-25T15:00:30.694Z,42.53
2022-07-25T15:02:57.904Z,42.84
2022-07-25T15:05:24.457Z,42.77
2022-07-25T15:07:51.386Z,43.54
2022-07-25T15:10:17.943Z,45.58
2022-07-25T15:12:44.578Z,45.92
2022-07-25T15:15:11.515Z,48.10
2022-07-25T15:17:39.399Z,48.17
2022-07-25T15:20:06.614Z,49.17
2022-07-25T15:22:33.243Z,48.57
2022-07-25T15:25:37.213Z,49.52
2022-07-25T15:27:46.761Z,49.57
2022-07-25T15:30:13.415Z,50.15
2022-07-25T15:32:40.250Z,51.19
2022-07-25T15:35:07.648Z,49.98
2022-07-25T15:37:34.521Z,50.81
2022-07-25T15:40:01.574Z,50.98
2022-07-25T15:42:29.529Z,53.69
2022-07-25T15:45:22.199Z,55.86
2022-07-25T15:47:47.507Z,54.09
2022-07-25T15:50:20.741Z,54.17
2022-07-25T15:52:47.629Z,53.18
2022-07-25T15:55:14.678Z,53.22
2022-07-25T15:57:41.318Z,52.57
2022-07-25T16:00:09.439Z,52.75
2022-07-25T16:02:36.015Z,50.99
2022-07-25T16:05:04.038Z,50.83
2022-07-25T16:07:30.868Z,50.99
2022-07-25T16:09:57.478Z,50.60
2022-07-25T16:12:28.343Z,50.50
2022-07-25T16:14:55.467Z,50.87
2022-07-25T16:17:22.321Z,51.01
2022-07-25T16:19:48.896Z,50.49
2022-07-25T16:22:15.504Z,50.96
2022-07-25T16:24:42.338Z,50.07
2022-07-25T16:27:09.900Z,48.69
2022-07-25T16:29:37.890Z,49.07
2022-07-25T16:32:05.821Z,47.84
2022-07-25T16:34:33.335Z,47.95
2022-07-25T16:37:01.329Z,48.25
2022-07-25T16:39:28.692Z,48.82
2022-07-25T16:41:55.343Z,49.25
2022-07-25T16:44:23.731Z,49.46
2022-07-25T16:46:50.840Z,49.93
2022-07-25T16:49:17.682Z,49.66
2022-07-25T16:51:45.293Z,48.96
2022-07-25T16:54:12.262Z,49.58
2022-07-25T16:56:39.990Z,48.98
2022-07-25T16:59:07.717Z,49.45
2022-07-25T17:01:37.855Z,48.17
2022-07-25T17:04:04.807Z,48.86
2022-07-25T17:06:31.501Z,48.97
2022-07-25T17:08:58.565Z,48.66
2022-07-25T17:11:25.148Z,49.08
2022-07-25T17:13:51.718Z,49.20
2022-07-25T17:16:19.043Z,50.29
2022-07-25T17:18:45.987Z,50.79
2022-07-25T17:21:15.134Z,50.98
2022-07-25T17:23:41.670Z,50.19
2022-07-25T17:26:08.633Z,51.43
2022-07-25T17:28:35.998Z,51.44
2022-07-25T17:31:02.835Z,50.84
2022-07-25T17:33:29.478Z,52.22
2022-07-25T17:35:56.570Z,52.53
2022-07-25T17:38:26.916Z,51.77
2022-07-25T17:40:55.369Z,51.72
2022-07-25T17:43:21.932Z,51.51
2022-07-25T17:45:48.611Z,51.63
2022-07-25T17:48:15.781Z,51.48
2022-07-25T17:50:42.462Z,51.13
2022-07-25T17:53:09.033Z,50.62
2022-07-25T17:55:39.064Z,50.27
2022-07-25T17:58:06.124Z,49.99
2022-07-25T18:00:32.733Z,49.29
2022-07-25T18:02:59.895Z,49.10
2022-07-25T18:05:26.733Z,48.82
2022-07-25T18:07:53.904Z,48.89
2022-07-25T18:10:23.956Z,49.66
2022-07-25T18:12:50.769Z,49.82
2022-07-25T18:15:17.536Z,50.14
2022-07-25T18:17:45.758Z,49.15
2022-07-25T18:20:14.952Z,49.21
2022-07-25T18:22:41.786Z,49.64
2022-07-25T18:25:11.376Z,49.02
2022-07-25T18:27:42.656Z,49.05
2022-07-25T18:30:10.587Z,48.38
2022-07-25T18:32:37.707Z,47.86
2022-07-25T18:35:05.026Z,48.18
2022-07-25T18:37:31.778Z,48.63
2022-07-25T18:39:58.302Z,49.12
2022-07-25T18:42:29.769Z,49.79
2022-07-25T18:44:57.226Z,49.04
2022-07-25T18:47:26.428Z,49.57
2022-07-25T18:49:59.207Z,48.47
2022-07-25T18:52:25.856Z,49.09
2022-07-25T18:54:52.426Z,47.86
2022-07-25T18:57:19.055Z,48.14
2022-07-25T18:59:45.911Z,47.95
2022-07-25T19:02:12.573Z,47.57
2022-07-25T19:04:39.181Z,47.88
2022-07-25T19:07:05.775Z,47.57
2022-07-25T19:09:32.366Z,48.08
2022-07-25T19:11:58.963Z,46.69
2022-07-25T19:14:27.693Z,47.28
2022-07-25T19:16:54.756Z,47.85
2022-07-25T19:19:21.416Z,47.79
2022-07-25T19:21:48.853Z,47.30
2022-07-25T19:24:15.850Z,47.74
2022-07-25T19:26:42.987Z,47.59
2022-07-25T19:29:16.356Z,47.96
2022-07-25T19:31:43.158Z,47.88
2022-07-25T19:34:11.060Z,48.04
2022-07-25T19:36:38.164Z,48.19
2022-07-25T19:39:06.086Z,47.16
2022-07-25T19:41:33.707Z,48.24
2022-07-25T19:44:00.577Z,47.83
2022-07-25T19:46:31.039Z,48.41
2022-07-25T19:48:58.082Z,48.33
2022-07-25T19:51:24.706Z,49.12
2022-07-25T19:53:51.315Z,48.96
2022-07-25T19:56:18.808Z,49.12
2022-07-25T19:58:45.662Z,48.69
2022-07-25T20:01:13.052Z,48.94
2022-07-25T20:03:40.494Z,49.98
2022-07-25T20:06:08.445Z,49.96
2022-07-25T20:08:36.527Z,49.35
2022-07-25T20:11:04.104Z,49.34
2022-07-25T20:13:30.783Z,49.09
2022-07-25T20:15:58.527Z,49.54
2022-07-25T20:18:25.208Z,49.26
2022-07-25T20:20:51.806Z,50.66
2022-07-25T20:23:18.735Z,50.18
2022-07-25T20:25:45.303Z,50.27
2022-07-25T20:28:11.909Z,50.02
2022-07-25T20:30:38.709Z,51.18
2022-07-25T20:33:09.431Z,50.60
2022-07-25T20:35:36.953Z,50.42
2022-07-25T20:38:09.042Z,50.66
2022-07-25T20:40:36.225Z,50.67
2022-07-25T20:43:05.018Z,49.75
2022-07-25T20:45:31.570Z,49.91
2022-07-25T20:47:58.142Z,49.45
2022-07-25T20:50:24.803Z,48.96
2022-07-25T20:52:51.732Z,48.93
2022-07-25T20:55:18.733Z,48.76
2022-07-25T20:57:50.341Z,49.00
2022-07-25T21:00:17.354Z,49.12
2022-07-25T21:02:44.914Z,48.80
2022-07-25T21:05:11.674Z,48.94
2022-07-25T21:07:38.369Z,48.09
2022-07-25T21:10:05.217Z,48.24
2022-07-25T21:12:32.974Z,48.67
2022-07-25T21:15:01.497Z,48.51
2022-07-25T21:17:28.348Z,47.76
2022-07-25T21:19:54.924Z,48.12
2022-07-25T21:22:21.677Z,48.31
2022-07-25T21:24:51.105Z,48.87
2022-07-25T21:27:17.962Z,48.11
2022-07-25T21:29:44.659Z,48.49
2022-07-25T21:32:13.686Z,48.57
2022-07-25T21:34:41.562Z,48.02
2022-07-25T21:37:08.304Z,47.86
2022-07-25T21:39:34.872Z,49.47
2022-07-25T21:42:01.529Z,49.11
2022-07-25T21:44:28.987Z,48.98
2022-07-25T21:46:55.870Z,49.07
2022-07-25T21:49:42.695Z,50.28
2022-07-25T21:52:13.617Z,49.95
2022-07-25T21:54:44.903Z,50.10
2022-07-25T21:57:13.668Z,49.28
2022-07-25T21:59:45.028Z,49.30
2022-07-25T22:02:12.432Z,49.31
2022-07-25T22:04:39.731Z,48.99
2022-07-25T22:07:06.398Z,49.74
2022-07-25T22:09:34.294Z,49.42
2022-07-25T22:12:01.019Z,50.51
2022-07-25T22:14:27.904Z,50.57
2022-07-25T22:16:54.576Z,51.51
2022-07-25T22:19:22.617Z,49.97
2022-07-25T22:21:49.857Z,50.22
2022-07-25T22:24:17.238Z,51.42
2022-07-25T22:26:43.910Z,50.79
2022-07-25T22:29:11.313Z,50.86
2022-07-25T22:31:39.078Z,50.89
2022-07-25T22:34:06.109Z,51.04
2022-07-25T22:36:32.704Z,51.68
2022-07-25T22:38:59.292Z,50.87
2022-07-25T22:41:25.827Z,51.17
2022-07-25T22:43:58.906Z,50.52
2022-07-25T22:46:31.787Z,50.80
2022-07-25T22:48:59.415Z,51.03
2022-07-25T22:51:27.601Z,50.76
2022-07-25T22:53:54.835Z,51.02
2022-07-25T22:56:21.863Z,51.21
2022-07-25T22:58:48.947Z,51.54
2022-07-25T23:01:17.541Z,52.00
2022-07-25T23:03:44.669Z,52.06
2022-07-25T23:06:11.731Z,52.16
2022-07-25T23:08:38.331Z,52.48
2022-07-25T23:11:06.339Z,52.32
2022-07-25T23:13:34.723Z,51.43
2022-07-25T23:16:01.914Z,51.40
2022-07-25T23:18:31.069Z,51.83
2022-07-25T23:20:57.847Z,52.25
2022-07-25T23:23:24.854Z,51.77
2022-07-25T23:25:51.778Z,51.69
2022-07-25T23:28:18.823Z,51.59
2022-07-25T23:30:45.573Z,51.44
2022-07-25T23:33:12.174Z,51.91
2022-07-25T23:35:38.891Z,51.89
2022-07-25T23:38:05.433Z,51.69
2022-07-25T23:40:32.706Z,51.73
2022-07-25T23:42:59.308Z,51.79
2022-07-25T23:45:28.057Z,51.88
2022-07-25T23:47:56.753Z,52.78
2022-07-25T23:50:24.386Z,52.55
2022-07-25T23:52:51.571Z,52.02
2022-07-25T23:55:19.288Z,52.57
2022-07-25T23:57:46.403Z,52.31
